Time;durP1;ratioP1;P1;durP2;ratioP2;P2;SDS_P1;SDS_P2;PMS_P1;PMS_P2;Temp;Humidity;BMP_temperature;BMP_pressure;BME280_temperature;BME280_humidity;BME280_pressure;Samples;Min_cycle;Max_cycle;Signal;HPM_P1;HPM_P2
2024/01/24 00:01:04;;;;;;;2.88;2.67;;;;;;;-4.86;100.00;101870.28;5065072;28;20053;-78
2024/01/24 00:03:30;;;;;;;0.30;0.30;;;;;;;-5.18;100.00;101862.41;5054958;28;20190;-80
2024/01/24 00:05:55;;;;;;;0.88;0.88;;;;;;;-4.68;100.00;101943.56;5058767;28;20457;-76
2024/01/24 00:08:21;;;;;;;6.35;6.03;;;;;;;-4.48;100.00;101972.53;5052497;28;20143;-80
2024/01/24 00:10:46;;;;;;;0.98;0.98;;;;;;;-4.57;100.00;101959.81;5058137;28;20045;-78
2024/01/24 00:13:12;;;;;;;8.63;8.18;;;;;;;-4.33;100.00;101976.41;5057884;28;20139;-78
2024/01/24 00:15:38;;;;;;;8.05;7.65;;;;;;;-4.46;100.00;101960.75;5049793;28;20044;-80
2024/01/24 00:18:04;;;;;;;3.60;3.30;;;;;;;-4.91;100.00;101892.03;5050803;28;20056;-78
2024/01/24 00:20:29;;;;;;;0.50;0.50;;;;;;;-4.64;100.00;101957.50;5053984;28;20036;-79
2024/01/24 00:22:55;;;;;;;13.63;12.35;;;;;;;-4.51;100.00;101970.59;5055314;28;20056;-77
2024/01/24 00:25:20;;;;;;;1.67;1.60;;;;;;;-4.44;100.00;101978.81;5045446;28;20049;-78
2024/01/24 00:27:46;;;;;;;7.85;7.25;;;;;;;-4.56;100.00;101942.81;5050719;28;20467;-77
2024/01/24 00:30:12;;;;;;;0.40;0.40;;;;;;;-4.28;100.00;101987.94;5056421;28;20041;-77
2024/01/24 00:32:38;;;;;;;9.23;8.70;;;;;;;-4.92;100.00;101874.88;5063785;28;20507;-78
2024/01/24 00:35:04;;;;;;;11.48;10.88;;;;;;;-4.35;100.00;101966.78;5053268;28;20102;-76
2024/01/24 00:37:31;;;;;;;12.63;8.55;;;;;;;-4.67;100.00;101911.16;5051099;28;20520;-78
2024/01/24 00:39:57;;;;;;;5.18;4.70;;;;;;;-4.52;100.00;101961.13;5054592;28;20378;-78
2024/01/24 00:42:23;;;;;;;3.35;3.22;;;;;;;-4.32;100.00;101973.06;5053991;28;20048;-78
2024/01/24 00:44:50;;;;;;;4.03;3.80;;;;;;;-4.24;100.00;101981.38;5065388;28;20135;-78
2024/01/24 00:47:18;;;;;;;13.38;10.63;;;;;;;-4.26;100.00;101986.41;5055599;28;20041;-76
2024/01/24 00:49:44;;;;;;;8.57;7.25;;;;;;;-4.83;100.00;101880.78;5048714;28;20116;-74
2024/01/24 00:52:09;;;;;;;0.40;0.40;;;;;;;-4.82;100.00;101887.72;5051506;28;20570;-77
2024/01/24 00:54:35;;;;;;;8.98;8.13;;;;;;;-4.81;100.00;101901.41;5047279;28;20091;-76
2024/01/24 00:57:00;;;;;;;1.15;1.05;;;;;;;-4.34;100.00;101979.72;5056077;28;20024;-78
2024/01/24 00:59:26;;;;;;;4.80;4.50;;;;;;;-4.92;100.00;101867.19;5053718;28;20442;-76
2024/01/24 01:01:51;;;;;;;2.75;2.65;;;;;;;-5.06;100.00;101855.78;5073942;28;20409;-76
2024/01/24 01:04:17;;;;;;;4.93;4.57;;;;;;;-4.26;100.00;101998.31;5052481;28;20603;-77
2024/01/24 01:06:42;;;;;;;3.20;3.08;;;;;;;-4.51;100.00;101942.41;5049536;28;20037;-76
2024/01/24 01:09:08;;;;;;;4.20;3.90;;;;;;;-5.32;100.00;101876.56;5047325;28;20029;-76
2024/01/24 01:11:33;;;;;;;14.02;3.60;;;;;;;-4.90;100.00;101928.00;5053066;28;20035;-75
2024/01/24 01:13:59;;;;;;;0.35;0.35;;;;;;;-4.21;100.00;102017.53;5049144;28;20131;-76
2024/01/24 01:16:25;;;;;;;22.67;16.05;;;;;;;-4.28;100.00;102020.34;5050186;28;20080;-75
2024/01/24 01:18:50;;;;;;;7.18;6.68;;;;;;;-4.29;100.00;102019.44;5049950;28;20086;-78
2024/01/24 01:21:16;;;;;;;0.52;0.52;;;;;;;-4.57;100.00;102022.94;5051665;28;20033;-76
2024/01/24 01:23:41;;;;;;;1.65;1.55;;;;;;;-4.60;100.00;101987.72;5048799;28;20095;-75
2024/01/24 01:26:07;;;;;;;1.20;1.10;;;;;;;-4.70;100.00;101939.06;5053645;28;20056;-75
2024/01/24 01:28:34;;;;;;;0.32;0.32;;;;;;;-4.73;100.00;101918.28;5047789;28;20052;-76
2024/01/24 01:31:00;;;;;;;30.83;17.88;;;;;;;-4.78;100.00;102012.63;5051835;28;20044;-76
2024/01/24 01:33:26;;;;;;;2.15;2.05;;;;;;;-5.16;100.00;101940.19;5049825;28;20087;-77
2024/01/24 01:35:51;;;;;;;0.57;0.57;;;;;;;-4.50;100.00;102032.97;5060743;28;20131;-74
2024/01/24 01:38:17;;;;;;;0.95;0.95;;;;;;;-5.02;100.00;101908.13;5054877;28;20573;-76
2024/01/24 01:40:42;;;;;;;4.82;4.60;;;;;;;-4.73;100.00;101987.44;5053041;28;20047;-76
2024/01/24 01:43:15;;;;;;;8.50;8.07;;;;;;;-5.13;100.00;101958.34;5059068;28;20083;-76
2024/01/24 01:45:41;;;;;;;2.83;2.73;;;;;;;-4.75;100.00;101999.22;5058043;28;20412;-77
2024/01/24 01:48:09;;;;;;;0.40;0.40;;;;;;;-4.89;100.00;101942.59;5060377;28;20122;-77
2024/01/24 01:50:36;;;;;;;10.65;10.02;;;;;;;-4.44;100.00;102032.63;5059978;28;20090;-76
2024/01/24 01:53:04;;;;;;;4.45;4.25;;;;;;;-4.31;100.00;102061.06;5055942;28;20493;-76
2024/01/24 01:55:31;;;;;;;1.05;1.05;;;;;;;-4.27;100.00;102037.50;5064761;28;20101;-75
2024/01/24 01:57:58;;;;;;;1.50;1.45;;;;;;;-4.78;100.00;101975.91;5057369;28;20576;-76
2024/01/24 02:00:25;;;;;;;0.73;0.73;;;;;;;-4.75;100.00;101978.75;5060789;28;20537;-76
2024/01/24 02:02:51;;;;;;;0.63;0.63;;;;;;;-4.76;100.00;101948.78;5054611;28;20492;-76
2024/01/24 02:05:17;;;;;;;0.70;0.70;;;;;;;-5.13;100.00;101882.53;5039739;28;20087;-78
2024/01/24 02:07:44;;;;;;;0.30;0.30;;;;;;;-4.83;100.00;101943.88;5052177;28;20037;-78
2024/01/24 02:10:12;;;;;;;0.55;0.55;;;;;;;-4.27;100.00;102019.56;5052068;28;20159;-78
2024/01/24 02:12:38;;;;;;;0.30;0.30;;;;;;;-4.38;100.00;101997.25;5054757;28;20472;-77
2024/01/24 02:15:06;;;;;;;0.60;0.60;;;;;;;-4.96;100.00;101909.56;5047009;28;20697;-78
2024/01/24 02:17:31;;;;;;;0.73;0.60;;;;;;;-4.27;100.00;102011.88;5056634;28;20032;-76
2024/01/24 02:19:57;;;;;;;12.00;10.93;;;;;;;-4.49;100.00;102007.50;5054112;28;20041;-75
2024/01/24 02:22:22;;;;;;;2.55;2.45;;;;;;;-4.94;100.00;101920.84;5052036;28;20032;-77
2024/01/24 02:24:48;;;;;;;3.08;2.97;;;;;;;-4.94;100.00;101913.16;5052914;28;20045;-77
2024/01/24 02:27:13;;;;;;;14.35;13.35;;;;;;;-4.14;100.00;102022.41;5057876;28;20040;-77
2024/01/24 02:29:39;;;;;;;0.75;0.75;;;;;;;-5.35;100.00;101830.25;5048239;28;20029;-76
2024/01/24 02:32:04;;;;;;;2.78;2.67;;;;;;;-4.74;100.00;101921.63;5051760;28;20066;-77
2024/01/24 02:34:31;;;;;;;0.30;0.30;;;;;;;-4.71;100.00;101927.00;5048237;28;20098;-76
2024/01/24 02:36:56;;;;;;;1.40;1.35;;;;;;;-4.75;100.00;101923.31;5048001;28;20495;-77
2024/01/24 02:39:22;;;;;;;1.30;1.25;;;;;;;-4.22;100.00;102030.22;5056280;28;20066;-76
2024/01/24 02:41:48;;;;;;;0.40;0.40;;;;;;;-4.58;100.00;101968.28;5076131;28;20491;-78
2024/01/24 02:44:13;;;;;;;0.77;0.77;;;;;;;-4.81;100.00;101947.47;5061683;28;20082;-75
2024/01/24 02:46:39;;;;;;;2.63;2.50;;;;;;;-4.65;100.00;101991.56;5053098;28;20064;-78
2024/01/24 02:49:04;;;;;;;15.13;14.25;;;;;;;-4.66;100.00;101987.19;5058649;28;20048;-77
2024/01/24 02:51:30;;;;;;;5.18;4.78;;;;;;;-4.32;100.00;102026.88;5064459;28;20060;-77
2024/01/24 02:53:56;;;;;;;1.73;1.63;;;;;;;-4.22;100.00;102037.91;5056634;28;20036;-75
2024/01/24 02:56:21;;;;;;;0.40;0.40;;;;;;;-4.88;100.00;101940.94;5062056;28;20056;-76
2024/01/24 02:58:47;;;;;;;1.23;1.20;;;;;;;-4.68;100.00;101934.97;5061377;28;20071;-76
2024/01/24 03:01:14;;;;;;;5.82;5.57;;;;;;;-4.68;100.00;101971.72;5053362;28;20045;-76
2024/01/24 03:03:40;;;;;;;4.63;4.38;;;;;;;-4.37;100.00;102011.88;5049263;28;20037;-76
2024/01/24 03:06:06;;;;;;;10.32;8.55;;;;;;;-4.48;100.00;101988.78;5056875;28;20031;-76
2024/01/24 03:08:58;;;;;;;27.83;24.42;;;;;;;-4.52;100.00;101978.13;5051652;28;20055;-76
2024/01/24 03:11:24;;;;;;;1.40;1.40;;;;;;;-4.32;100.00;102013.16;5054171;28;20053;-78
2024/01/24 03:13:50;;;;;;;3.97;3.65;;;;;;;-4.77;100.00;101918.81;5074257;28;20049;-77
2024/01/24 03:16:16;;;;;;;1.95;1.85;;;;;;;-4.19;100.00;102009.97;5045935;28;20044;-77
2024/01/24 03:18:42;;;;;;;5.22;4.90;;;;;;;-4.35;100.00;101989.84;5053230;28;20032;-77
2024/01/24 03:21:13;;;;;;;0.60;0.60;;;;;;;-4.39;100.00;101975.88;5050979;28;20082;-78
2024/01/24 03:23:39;;;;;;;1.65;1.55;;;;;;;-4.84;100.00;101940.44;5058954;28;20044;-76
2024/01/24 03:26:06;;;;;;;3.33;3.15;;;;;;;-4.60;100.00;101981.72;5046337;28;20049;-80
2024/01/24 03:28:32;;;;;;;1.30;1.20;;;;;;;-4.79;100.00;101982.69;5053139;28;20896;-78
2024/01/24 03:30:58;;;;;;;2.05;1.95;;;;;;;-5.05;100.00;101898.53;5054585;28;20052;-79
2024/01/24 03:33:23;;;;;;;0.82;0.82;;;;;;;-5.34;100.00;101883.19;5061316;28;20654;-78
2024/01/24 03:35:49;;;;;;;11.48;5.10;;;;;;;-4.74;100.00;101962.59;5065662;28;20051;-78
2024/01/24 03:38:14;;;;;;;3.30;3.13;;;;;;;-4.75;100.00;101932.66;5058148;28;20040;-77
2024/01/24 03:40:40;;;;;;;4.10;3.90;;;;;;;-4.17;100.00;102028.94;5062631;28;20044;-77
2024/01/24 03:43:06;;;;;;;2.35;2.25;;;;;;;-4.12;100.00;102019.97;5059190;28;20095;-77
2024/01/24 03:45:31;;;;;;;38.95;29.13;;;;;;;-4.35;100.00;101988.19;5061053;28;20037;-79
2024/01/24 03:47:57;;;;;;;13.25;12.32;;;;;;;-4.52;100.00;101932.97;5065063;28;20047;-78
2024/01/24 03:50:22;;;;;;;14.65;13.70;;;;;;;-4.22;100.00;101984.09;5058824;28;20140;-78
2024/01/24 03:52:48;;;;;;;13.75;13.02;;;;;;;-4.03;100.00;102021.66;5061850;28;20056;-79
2024/01/24 03:55:13;;;;;;;9.55;8.88;;;;;;;-3.90;100.00;102025.25;5074343;28;20468;-80
2024/01/24 03:57:40;;;;;;;31.40;28.90;;;;;;;-4.54;100.00;101951.50;5064156;28;20039;-78
2024/01/24 04:00:06;;;;;;;20.48;18.65;;;;;;;-4.73;100.00;101941.34;5054697;28;20029;-78
2024/01/24 04:02:32;;;;;;;1.13;1.13;;;;;;;-3.98;100.00;102057.03;5060442;28;20024;-77
2024/01/24 04:04:57;;;;;;;2.45;2.35;;;;;;;-4.24;100.00;101999.31;5053223;28;20063;-76
2024/01/24 04:07:23;;;;;;;0.85;0.85;;;;;;;-4.49;100.00;101927.19;5060363;28;20091;-75
2024/01/24 04:09:48;;;;;;;1.63;1.52;;;;;;;-4.01;100.00;102001.25;5050060;28;20469;-76
2024/01/24 04:12:14;;;;;;;0.40;0.40;;;;;;;-4.89;100.00;101934.91;5058086;28;20016;-76
2024/01/24 04:14:39;;;;;;;5.50;5.05;;;;;;;-4.04;100.00;102049.72;5057299;28;20172;-75
2024/01/24 04:17:05;;;;;;;3.85;3.70;;;;;;;-4.11;100.00;102026.91;5055225;28;20049;-76
2024/01/24 04:19:30;;;;;;;0.40;0.40;;;;;;;-3.89;100.00;102065.50;5055397;28;20105;-76
2024/01/24 04:21:56;;;;;;;3.67;3.50;;;;;;;-4.28;100.00;102039.19;5059581;28;20040;-75
2024/01/24 04:24:21;;;;;;;0.50;0.50;;;;;;;-4.99;100.00;101959.56;5053013;28;20037;-77
2024/01/24 04:26:47;;;;;;;3.33;3.13;;;;;;;-4.12;100.00;102071.22;5046701;28;20045;-77
2024/01/24 04:29:12;;;;;;;4.28;3.90;;;;;;;-4.96;100.00;101964.97;5055117;28;20036;-77
2024/01/24 04:31:38;;;;;;;5.88;5.53;;;;;;;-4.22;100.00;102063.53;5057899;28;20036;-77
2024/01/24 04:34:04;;;;;;;5.25;4.97;;;;;;;-4.76;100.00;102031.59;5058247;28;20086;-77
2024/01/24 04:36:30;;;;;;;0.57;0.57;;;;;;;-4.76;100.00;102039.28;5059528;28;20148;-75
2024/01/24 04:38:55;;;;;;;6.68;5.65;;;;;;;-4.62;100.00;101984.13;5055500;28;20466;-76
2024/01/24 04:41:21;;;;;;;3.15;3.05;;;;;;;-4.60;100.00;101972.38;5062732;28;20123;-77
2024/01/24 04:43:46;;;;;;;1.77;1.67;;;;;;;-4.05;100.00;102046.28;5060688;28;20037;-76
2024/01/24 04:46:15;;;;;;;6.22;5.93;;;;;;;-4.43;100.00;101972.91;5059815;28;20127;-76
2024/01/24 04:48:43;;;;;;;2.10;2.00;;;;;;;-4.07;100.00;102034.09;5061882;28;20041;-77
2024/01/24 04:51:09;;;;;;;1.58;1.48;;;;;;;-3.73;100.00;102091.66;5066102;28;20399;-76
2024/01/24 04:53:35;;;;;;;2.50;2.40;;;;;;;-4.33;100.00;101983.16;5057511;28;20033;-76
2024/01/24 04:56:00;;;;;;;0.63;0.63;;;;;;;-4.44;100.00;101979.72;5059651;28;20041;-77
2024/01/24 04:58:26;;;;;;;1.65;1.55;;;;;;;-4.36;100.00;102050.41;5061924;28;20052;-77
2024/01/24 05:00:52;;;;;;;1.27;1.27;;;;;;;-3.86;100.00;102100.00;5064078;28;20086;-77
2024/01/24 05:03:17;;;;;;;0.50;0.50;;;;;;;-4.67;100.00;102072.47;5052808;28;20033;-77
2024/01/24 05:05:43;;;;;;;1.10;1.10;;;;;;;-4.29;100.00;102113.34;5058788;28;20033;-76
2024/01/24 05:08:08;;;;;;;1.33;1.33;;;;;;;-4.56;100.00;102107.63;5054107;28;20049;-78
2024/01/24 05:10:34;;;;;;;3.13;3.00;;;;;;;-5.28;100.00;102010.75;5054928;28;20064;-77
2024/01/24 05:12:59;;;;;;;0.85;0.85;;;;;;;-4.41;100.00;102077.31;5050876;28;20079;-78
2024/01/24 05:15:25;;;;;;;0.32;0.32;;;;;;;-5.09;100.00;102024.41;5052403;28;20404;-77
2024/01/24 05:17:50;;;;;;;6.22;5.93;;;;;;;-4.50;100.00;102045.75;5048460;28;20112;-76
2024/01/24 05:20:17;;;;;;;1.63;1.52;;;;;;;-4.59;100.00;102004.00;5047640;28;20047;-76
2024/01/24 05:22:43;;;;;;;5.47;5.15;;;;;;;-4.57;100.00;102102.34;5047005;28;20123;-76
2024/01/24 05:25:10;;;;;;;0.73;0.73;;;;;;;-4.14;100.00;102107.00;5053271;28;20049;-76
2024/01/24 05:27:36;;;;;;;1.45;1.35;;;;;;;-3.94;100.00;102102.66;5053755;28;20044;-75
2024/01/24 05:30:01;;;;;;;9.93;8.63;;;;;;;-4.43;100.00;101991.72;5050660;28;20033;-76
2024/01/24 05:32:28;;;;;;;6.82;6.32;;;;;;;-4.04;100.00;102071.13;5055697;28;20035;-76
2024/01/24 05:34:54;;;;;;;2.15;2.05;;;;;;;-4.34;100.00;101995.09;5058400;28;20104;-77
2024/01/24 05:37:19;;;;;;;3.58;3.38;;;;;;;-3.76;100.00;102096.53;5052150;28;20087;-76
2024/01/24 05:39:45;;;;;;;0.82;0.82;;;;;;;-4.32;100.00;102002.91;5060471;28;20040;-76
2024/01/24 05:42:10;;;;;;;11.13;10.13;;;;;;;-3.63;100.00;102124.13;5060719;28;20604;-77
2024/01/24 05:44:36;;;;;;;1.63;1.52;;;;;;;-3.58;100.00;102107.47;5064015;28;20135;-77
2024/01/24 05:47:01;;;;;;;2.72;2.63;;;;;;;-3.69;100.00;102096.28;5057741;28;20110;-76
2024/01/24 05:49:27;;;;;;;0.68;0.68;;;;;;;-4.18;100.00;101981.03;5061685;28;20036;-78
2024/01/24 05:51:52;;;;;;;6.28;5.97;;;;;;;-4.40;100.00;101996.22;5066939;28;20029;-76
2024/01/24 05:54:18;;;;;;;16.13;15.13;;;;;;;-4.31;100.00;101990.25;5064250;28;20024;-78
2024/01/24 05:56:43;;;;;;;1.80;1.70;;;;;;;-3.63;100.00;102104.50;5060612;28;20035;-76
2024/01/24 05:59:09;;;;;;;16.73;15.63;;;;;;;-3.56;100.00;102095.63;5065222;28;20091;-75
2024/01/24 06:01:36;;;;;;;14.23;13.30;;;;;;;-3.94;100.00;102013.81;5057302;28;20087;-76
2024/01/24 06:04:02;;;;;;;3.00;2.85;;;;;;;-3.76;100.00;102070.91;5060886;28;20056;-79
2024/01/24 06:06:27;;;;;;;0.65;0.65;;;;;;;-4.17;100.00;101981.13;5055869;28;20056;-79
2024/01/24 06:08:53;;;;;;;6.95;6.38;;;;;;;-3.75;100.00;102079.47;5053439;28;20021;-78
2024/01/24 06:11:18;;;;;;;0.57;0.57;;;;;;;-4.27;100.00;102097.34;5069165;28;20037;-77
2024/01/24 06:13:44;;;;;;;14.07;12.90;;;;;;;-4.13;100.00;102113.91;5049762;28;20048;-78
2024/01/24 06:16:10;;;;;;;0.73;0.73;;;;;;;-3.97;100.00;102067.41;5055953;28;20472;-77
2024/01/24 06:18:35;;;;;;;11.80;4.78;;;;;;;-4.31;100.00;102007.25;5052941;28;20048;-79
2024/01/24 06:21:01;;;;;;;1.63;1.52;;;;;;;-3.48;100.00;102094.63;5045789;28;20128;-77
2024/01/24 06:23:26;;;;;;;1.52;1.42;;;;;;;-4.02;100.00;101989.22;5056738;28;20679;-79
2024/01/24 06:25:52;;;;;;;4.13;3.92;;;;;;;-4.23;100.00;101997.69;5044767;28;20048;-78
2024/01/24 06:28:17;;;;;;;1.73;1.63;;;;;;;-4.06;100.00;102010.25;5055113;28;20500;-77
2024/01/24 06:30:43;;;;;;;7.65;6.85;;;;;;;-3.40;100.00;102095.25;5045826;28;20120;-77
2024/01/24 06:33:09;;;;;;;6.25;5.88;;;;;;;-3.38;100.00;102101.41;5055240;28;20032;-77
2024/01/24 06:35:34;;;;;;;0.77;0.77;;;;;;;-3.49;100.00;102046.66;5052797;28;20033;-78
2024/01/24 06:38:01;;;;;;;6.13;5.82;;;;;;;-3.68;100.00;101990.34;5052728;28;20037;-78
2024/01/24 06:40:26;;;;;;;4.55;4.28;;;;;;;-3.13;100.00;102081.25;5062733;28;20046;-78
2024/01/24 06:42:52;;;;;;;1.33;1.23;;;;;;;-3.98;100.00;101916.03;5062231;28;20074;-78
2024/01/24 06:45:18;;;;;;;1.17;1.17;;;;;;;-3.59;100.00;101994.47;5059194;28;20078;-78
2024/01/24 06:47:44;;;;;;;9.05;8.60;;;;;;;-3.40;100.00;102016.59;5059920;28;20033;-76
2024/01/24 06:50:13;;;;;;;2.05;1.95;;;;;;;-3.42;100.00;102031.00;5055480;28;20045;-77
2024/01/24 06:52:41;;;;;;;1.40;1.35;;;;;;;-3.23;100.00;102070.97;5061013;28;20520;-77
2024/01/24 06:55:08;;;;;;;3.92;2.88;;;;;;;-2.94;100.00;102093.03;5055961;28;20045;-77
2024/01/24 06:57:34;;;;;;;0.82;0.82;;;;;;;-3.06;100.00;102082.66;5060229;28;20043;-76
2024/01/24 07:00:00;;;;;;;2.08;1.98;;;;;;;-4.04;100.00;102031.78;5073496;28;20029;-77
2024/01/24 07:02:26;;;;;;;6.78;6.38;;;;;;;-3.61;100.00;102012.28;5046727;28;20033;-76
2024/01/24 07:04:51;;;;;;;3.75;2.88;;;;;;;-3.45;100.00;102037.53;5052120;28;20646;-78
2024/01/24 07:07:17;;;;;;;4.85;4.57;;;;;;;-3.10;100.00;102066.09;5049251;28;20048;-77
2024/01/24 07:09:42;;;;;;;2.88;2.75;;;;;;;-2.98;100.00;102068.75;5051381;28;20145;-76
2024/01/24 07:12:08;;;;;;;11.98;11.18;;;;;;;-3.37;100.00;102016.00;5058217;28;20449;-76
2024/01/24 07:14:34;;;;;;;0.40;0.40;;;;;;;-2.80;100.00;102115.59;5055445;28;20037;-76
2024/01/24 07:17:00;;;;;;;3.10;2.80;;;;;;;-4.36;100.00;102077.72;5053505;28;20103;-76
2024/01/24 07:19:25;;;;;;;8.10;7.70;;;;;;;-4.07;100.00;102027.28;5057831;28;20583;-79
2024/01/24 07:21:51;;;;;;;1.85;1.75;;;;;;;-3.17;100.00;102120.28;5051014;28;20322;-77
2024/01/24 07:24:17;;;;;;;2.50;2.40;;;;;;;-2.97;100.00;102134.78;5052429;28;20549;-77
2024/01/24 07:26:43;;;;;;;8.15;7.78;;;;;;;-3.65;100.00;102030.78;5052989;28;20027;-78
2024/01/24 07:29:10;;;;;;;0.70;0.70;;;;;;;-3.33;100.00;102130.03;5050819;28;20071;-80
2024/01/24 07:31:37;;;;;;;5.68;5.38;;;;;;;-3.28;100.00;102119.41;5054061;28;20047;-76
2024/01/24 07:34:03;;;;;;;9.00;8.57;;;;;;;-3.06;100.00;102127.19;5059287;28;20554;-75
2024/01/24 07:36:28;;;;;;;1.38;1.27;;;;;;;-3.50;100.00;102044.84;5060565;28;20127;-78
2024/01/24 07:38:54;;;;;;;5.70;5.40;;;;;;;-3.37;100.00;102033.03;5055866;28;20045;-77
2024/01/24 07:41:20;;;;;;;2.35;2.25;;;;;;;-3.33;100.00;102019.69;5063225;28;20071;-78
2024/01/24 07:43:45;;;;;;;4.03;3.83;;;;;;;-3.19;100.00;102006.28;5061969;28;20037;-76
2024/01/24 07:46:11;;;;;;;2.13;2.03;;;;;;;-2.75;100.00;102109.16;5055270;28;20470;-77
2024/01/24 07:48:36;;;;;;;3.28;3.13;;;;;;;-2.41;100.00;102091.28;5078491;28;20041;-78
2024/01/24 07:51:04;;;;;;;0.57;0.57;;;;;;;-2.58;100.00;102046.25;5082066;28;20127;-78
2024/01/24 07:53:29;;;;;;;8.73;7.93;;;;;;;-2.98;100.00;102013.16;5061414;28;20458;-77
2024/01/24 07:55:56;;;;;;;3.40;3.25;;;;;;;-2.64;100.00;102092.94;5074652;28;20140;-78
2024/01/24 07:58:22;;;;;;;6.88;6.25;;;;;;;-2.64;100.00;102087.78;5070246;28;20048;-78
2024/01/24 08:00:47;;;;;;;4.20;3.88;;;;;;;-2.37;100.00;102106.19;5066155;28;20040;-78
2024/01/24 08:03:13;;;;;;;1.48;1.38;;;;;;;-2.60;100.00;102028.19;5054982;28;20095;-77
2024/01/24 08:05:38;;;;;;;3.25;3.05;;;;;;;-2.19;100.00;102114.44;5052011;28;20536;-77
2024/01/24 08:08:04;;;;;;;6.82;6.40;;;;;;;-1.97;100.00;102101.59;5058705;28;20071;-79
2024/01/24 08:10:29;;;;;;;0.77;0.77;;;;;;;-1.85;100.00;102081.06;5055429;28;20070;-76
2024/01/24 08:12:55;;;;;;;8.00;7.35;;;;;;;-2.36;100.00;102016.34;5053152;28;20873;-78
2024/01/24 08:15:20;;;;;;;16.65;15.50;;;;;;;-2.02;100.00;102075.50;5052332;28;20078;-77
2024/01/24 08:17:47;;;;;;;2.42;2.30;;;;;;;-2.50;100.00;101992.94;5050669;28;20469;-76
2024/01/24 08:20:13;;;;;;;4.40;4.10;;;;;;;-1.86;100.00;102087.00;5067963;28;20048;-79
2024/01/24 08:22:39;;;;;;;2.17;2.08;;;;;;;-1.99;100.00;102067.13;5049441;28;20048;-77
2024/01/24 08:25:05;;;;;;;8.70;8.20;;;;;;;-2.63;100.00;101994.50;5055627;28;20037;-77
2024/01/24 08:27:31;;;;;;;20.30;18.85;;;;;;;-2.08;100.00;102093.06;5051986;28;20033;-78
2024/01/24 08:29:57;;;;;;;11.65;10.70;;;;;;;-1.78;100.00;102085.88;5051791;28;20047;-76
2024/01/24 08:32:22;;;;;;;3.60;3.40;;;;;;;-1.57;100.00;102079.84;5064039;28;20041;-77
2024/01/24 08:34:48;;;;;;;4.47;4.18;;;;;;;-1.60;100.00;102083.84;5074922;28;20118;-79
2024/01/24 08:37:14;;;;;;;13.38;12.43;;;;;;;-1.86;100.00;102074.13;5058265;28;20128;-77
2024/01/24 08:39:40;;;;;;;2.53;2.42;;;;;;;-2.29;100.00;101984.31;5052510;28;20041;-79
2024/01/24 08:42:06;;;;;;;11.90;10.98;;;;;;;-1.74;100.00;102081.09;5063775;28;20043;-76
2024/01/24 08:44:31;;;;;;;1.27;1.27;;;;;;;-2.44;100.00;101984.00;5058952;28;20040;-77
2024/01/24 08:46:57;;;;;;;0.80;0.80;;;;;;;-2.17;100.00;101979.19;5064665;28;20128;-78
2024/01/24 08:49:22;;;;;;;2.53;2.33;;;;;;;-2.01;100.00;102064.47;5065003;28;20033;-78
2024/01/24 08:51:48;;;;;;;5.13;4.78;;;;;;;-2.40;100.00;102008.28;5060727;28;20488;-77
2024/01/24 08:54:14;;;;;;;24.48;19.20;;;;;;;-2.45;100.00;101971.94;5054553;28;20032;-76
2024/01/24 08:56:40;;;;;;;5.35;3.97;;;;;;;-2.01;100.00;102043.88;5057892;28;20071;-76
2024/01/24 08:59:06;;;;;;;8.60;8.20;;;;;;;-2.63;100.00;101958.53;5062462;28;20072;-78
2024/01/24 09:01:32;;;;;;;1.40;1.38;;;;;;;-2.01;100.00;102049.03;5054890;28;20103;-76
2024/01/24 09:03:57;;;;;;;2.92;0.82;;;;;;;-1.66;100.00;102017.38;5053603;28;20056;-77
2024/01/24 09:06:25;;;;;;;6.32;5.78;;;;;;;-1.64;100.00;102046.69;5051326;28;20048;-77
2024/01/24 09:08:52;;;;;;;5.75;5.45;;;;;;;-1.35;100.00;102048.88;5050915;28;20032;-76
2024/01/24 09:11:19;;;;;;;3.58;3.33;;;;;;;-1.82;100.00;101958.72;5035133;28;20048;-77
2024/01/24 09:13:46;;;;;;;9.93;9.18;;;;;;;-1.28;100.00;102069.13;5039198;28;20709;-78
2024/01/24 09:16:12;;;;;;;4.20;4.00;;;;;;;-1.37;100.00;102059.84;5045906;28;20124;-76
2024/01/24 09:18:39;;;;;;;10.55;9.73;;;;;;;-1.33;100.00;102057.59;5059124;28;20156;-76
2024/01/24 09:21:04;;;;;;;2.83;2.67;;;;;;;-1.60;100.00;101970.59;5050503;28;20107;-76
2024/01/24 09:23:31;;;;;;;1.52;1.45;;;;;;;-1.66;100.00;101965.91;5051442;28;20378;-76
2024/01/24 09:25:57;;;;;;;3.30;3.20;;;;;;;-1.62;100.00;101934.44;5059175;28;20044;-77
2024/01/24 09:28:23;;;;;;;11.48;10.77;;;;;;;-1.40;100.00;101993.56;5056307;28;20051;-79
2024/01/24 09:30:48;;;;;;;11.90;11.15;;;;;;;-1.65;100.00;101899.88;5058062;28;20453;-81
2024/01/24 09:33:14;;;;;;;9.20;8.60;;;;;;;-1.16;100.00;102006.44;5056469;28;20028;-81
2024/01/24 09:35:41;;;;;;;1.00;1.00;;;;;;;-1.42;100.00;102002.84;5029571;28;20059;-82
2024/01/24 09:38:06;;;;;;;2.78;2.58;;;;;;;-1.11;100.00;102026.59;5042321;28;20037;-78
2024/01/24 09:40:32;;;;;;;17.23;15.88;;;;;;;-1.25;100.00;102024.69;5052411;28;20790;-80
2024/01/24 09:43:01;;;;;;;2.42;2.33;;;;;;;-1.34;100.00;101921.03;5049912;28;20049;-78
2024/01/24 09:45:28;;;;;;;5.68;5.25;;;;;;;-0.86;100.00;101993.19;5033601;28;20167;-76
2024/01/24 09:47:57;;;;;;;4.38;4.18;;;;;;;-0.94;100.00;101931.59;5044363;28;20040;-77
2024/01/24 09:50:24;;;;;;;1.45;1.35;;;;;;;-1.37;100.00;101892.50;5063018;28;20053;-77
2024/01/24 09:52:54;;;;;;;6.38;5.90;;;;;;;-0.82;100.00;101967.63;5050269;28;20099;-76
2024/01/24 09:55:20;;;;;;;5.55;2.30;;;;;;;-1.12;100.00;101884.84;5042289;28;20052;-77
2024/01/24 09:57:47;;;;;;;1.60;1.58;;;;;;;-0.59;100.00;101983.03;5036476;28;20147;-77
2024/01/24 10:00:14;;;;;;;6.15;5.78;;;;;;;-1.31;100.00;101872.34;5042406;28;20048;-83
2024/01/24 10:02:44;;;;;;;1.80;1.73;;;;;;;-0.92;100.00;101948.94;5043496;28;20025;-79
2024/01/24 10:05:14;;;;;;;3.65;3.40;;;;;;;-1.48;100.00;101786.16;5046455;28;20168;-80
2024/01/24 10:07:41;;;;;;;2.15;2.05;;;;;;;-1.09;100.00;101851.56;5042107;28;20052;-81
2024/01/24 10:10:15;;;;;;;7.55;7.05;;;;;;;-0.72;100.00;101927.19;5044510;28;20509;-77
2024/01/24 10:12:44;;;;;;;3.25;2.95;;;;;;;-0.44;100.00;101911.94;5043038;28;20783;-80
2024/01/24 10:15:13;;;;;;;1.48;1.38;;;;;;;-0.26;100.00;101899.41;5039609;28;20067;-79
2024/01/24 10:17:42;;;;;;;5.88;4.43;;;;;;;-0.35;100.00;101842.06;5042592;28;20052;-76
2024/01/24 10:20:11;;;;;;;7.97;7.47;;;;;;;-0.48;100.00;101834.28;5032779;28;20049;-78
2024/01/24 10:22:42;;;;;;;9.38;8.85;;;;;;;-0.10;100.00;101906.47;5036250;28;20509;-77
2024/01/24 10:25:10;;;;;;;1.40;1.30;;;;;;;0.04;100.00;101929.72;5036472;28;20124;-79
2024/01/24 10:27:38;;;;;;;5.05;4.72;;;;;;;0.07;100.00;101927.34;5045494;28;20052;-81
2024/01/24 10:30:15;;;;;;;6.13;5.78;;;;;;;-0.01;100.00;101863.22;5046553;28;20041;-81
2024/01/24 10:32:48;;;;;;;1.23;1.20;;;;;;;-0.96;100.00;101794.97;5048146;28;20043;-81
2024/01/24 10:35:15;;;;;;;3.43;3.33;;;;;;;0.10;100.00;101918.13;5044103;28;20052;-79
2024/01/24 10:37:42;;;;;;;1.35;1.33;;;;;;;0.29;100.00;101915.09;5043545;28;20764;-78
2024/01/24 10:40:15;;;;;;;5.85;5.55;;;;;;;0.20;100.00;101914.47;5037759;28;20048;-81
2024/01/24 10:42:42;;;;;;;2.58;2.45;;;;;;;-0.35;100.00;101811.09;5040116;28;20771;-82
2024/01/24 10:45:08;;;;;;;1.73;1.63;;;;;;;0.25;100.00;101887.28;5040198;28;20481;-75
2024/01/24 10:47:34;;;;;;;8.75;8.10;;;;;;;0.07;100.00;101837.03;5055686;28;20028;-76
2024/01/24 10:50:03;;;;;;;7.05;6.65;;;;;;;0.24;100.00;101786.53;5037928;28;20496;-75
2024/01/24 10:52:29;;;;;;;3.67;3.47;;;;;;;1.05;100.00;101864.84;5044960;28;20047;-75
2024/01/24 10:55:01;;;;;;;3.42;3.22;;;;;;;1.20;100.00;101830.38;5042987;28;20065;-74
2024/01/24 10:57:28;;;;;;;2.88;2.67;;;;;;;1.10;100.00;101769.50;5038526;28;20083;-74
2024/01/24 10:59:56;;;;;;;3.20;3.00;;;;;;;1.39;100.00;101820.34;5040199;28;20056;-76
2024/01/24 11:02:22;;;;;;;12.10;9.48;;;;;;;1.80;100.00;101841.69;5040350;28;20130;-80
2024/01/24 11:04:50;;;;;;;6.80;6.43;;;;;;;1.59;100.00;101807.69;5036865;28;20644;-75
2024/01/24 11:07:29;;;;;;;2.25;2.15;;;;;;;1.12;100.00;101739.44;5046030;28;20114;-75
2024/01/24 11:10:23;;;;;;;7.55;7.07;;;;;;;1.98;100.00;101805.63;5041150;28;20053;-79
2024/01/24 11:12:49;;;;;;;9.68;8.93;;;;;;;1.84;100.00;101730.69;5047829;28;20071;-78